sensor_id;sensor_type;location;lat;lon;timestamp;temperature;humidity
780;DHT22;373;49.342;8.146;2022-07-10T00:00:52;19.50;99.80
780;DHT22;373;49.342;8.146;2022-07-10T00:03:21;19.70;98.50
780;DHT22;373;49.342;8.146;2022-07-10T00:05:49;19.70;97.60
780;DHT22;373;49.342;8.146;2022-07-10T00:08:16;19.50;97.80
780;DHT22;373;49.342;8.146;2022-07-10T00:10:43;19.60;97.60
780;DHT22;373;49.342;8.146;2022-07-10T00:13:10;19.70;96.90
780;DHT22;373;49.342;8.146;2022-07-10T00:15:37;19.60;97.00
780;DHT22;373;49.342;8.146;2022-07-10T00:18:04;19.60;97.10
780;DHT22;373;49.342;8.146;2022-07-10T00:20:33;19.50;97.10
780;DHT22;373;49.342;8.146;2022-07-10T00:23:01;19.60;96.40
780;DHT22;373;49.342;8.146;2022-07-10T00:25:28;19.50;96.80
780;DHT22;373;49.342;8.146;2022-07-10T00:27:56;19.30;97.00
780;DHT22;373;49.342;8.146;2022-07-10T00:30:23;19.10;97.60
780;DHT22;373;49.342;8.146;2022-07-10T00:32:50;19.00;97.70
780;DHT22;373;49.342;8.146;2022-07-10T00:35:17;18.90;97.80
780;DHT22;373;49.342;8.146;2022-07-10T00:37:46;19.00;97.40
780;DHT22;373;49.342;8.146;2022-07-10T00:40:13;18.90;97.90
780;DHT22;373;49.342;8.146;2022-07-10T00:42:40;19.10;97.80
780;DHT22;373;49.342;8.146;2022-07-10T00:45:08;19.20;97.50
780;DHT22;373;49.342;8.146;2022-07-10T00:47:36;18.90;97.80
780;DHT22;373;49.342;8.146;2022-07-10T00:50:04;18.70;98.30
780;DHT22;373;49.342;8.146;2022-07-10T00:52:33;18.80;98.20
780;DHT22;373;49.342;8.146;2022-07-10T00:55:08;18.70;98.90
780;DHT22;373;49.342;8.146;2022-07-10T00:57:36;18.70;98.40
780;DHT22;373;49.342;8.146;2022-07-10T01:00:05;18.80;98.10
780;DHT22;373;49.342;8.146;2022-07-10T01:02:32;18.60;98.60
780;DHT22;373;49.342;8.146;2022-07-10T01:04:59;18.50;99.10
780;DHT22;373;49.342;8.146;2022-07-10T01:07:27;18.50;99.20
780;DHT22;373;49.342;8.146;2022-07-10T01:09:54;18.60;98.50
780;DHT22;373;49.342;8.146;2022-07-10T01:12:23;18.70;98.10
780;DHT22;373;49.342;8.146;2022-07-10T01:14:51;18.60;98.10
780;DHT22;373;49.342;8.146;2022-07-10T01:17:18;18.60;97.70
780;DHT22;373;49.342;8.146;2022-07-10T01:19:45;18.60;98.30
780;DHT22;373;49.342;8.146;2022-07-10T01:22:13;18.60;98.10
780;DHT22;373;49.342;8.146;2022-07-10T01:24:41;18.80;97.80
780;DHT22;373;49.342;8.146;2022-07-10T01:27:08;18.80;97.30
780;DHT22;373;49.342;8.146;2022-07-10T01:29:35;18.70;97.40
780;DHT22;373;49.342;8.146;2022-07-10T01:32:03;18.80;97.30
780;DHT22;373;49.342;8.146;2022-07-10T01:34:30;18.70;97.60
780;DHT22;373;49.342;8.146;2022-07-10T01:36:57;18.60;97.60
780;DHT22;373;49.342;8.146;2022-07-10T01:39:25;18.50;98.30
780;DHT22;373;49.342;8.146;2022-07-10T01:41:52;18.40;98.10
780;DHT22;373;49.342;8.146;2022-07-10T01:44:19;18.30;98.60
780;DHT22;373;49.342;8.146;2022-07-10T01:46:47;18.30;98.80
780;DHT22;373;49.342;8.146;2022-07-10T01:49:14;18.20;98.80
780;DHT22;373;49.342;8.146;2022-07-10T01:51:42;18.00;99.30
780;DHT22;373;49.342;8.146;2022-07-10T01:54:09;18.00;99.50
780;DHT22;373;49.342;8.146;2022-07-10T01:56:37;17.90;99.90
780;DHT22;373;49.342;8.146;2022-07-10T01:59:05;18.10;99.80
780;DHT22;373;49.342;8.146;2022-07-10T02:01:32;18.10;99.20
780;DHT22;373;49.342;8.146;2022-07-10T02:03:59;18.00;99.90
780;DHT22;373;49.342;8.146;2022-07-10T02:06:44;18.00;99.90
780;DHT22;373;49.342;8.146;2022-07-10T02:09:11;17.90;99.20
780;DHT22;373;49.342;8.146;2022-07-10T02:11:41;17.80;99.90
780;DHT22;373;49.342;8.146;2022-07-10T02:14:09;18.00;99.30
780;DHT22;373;49.342;8.146;2022-07-10T02:16:36;17.90;99.00
780;DHT22;373;49.342;8.146;2022-07-10T02:19:04;17.90;99.50
780;DHT22;373;49.342;8.146;2022-07-10T02:21:31;18.00;99.30
780;DHT22;373;49.342;8.146;2022-07-10T02:23:58;18.00;98.30
780;DHT22;373;49.342;8.146;2022-07-10T02:26:25;18.10;98.00
780;DHT22;373;49.342;8.146;2022-07-10T02:28:53;18.10;97.50
780;DHT22;373;49.342;8.146;2022-07-10T02:31:20;18.30;98.00
780;DHT22;373;49.342;8.146;2022-07-10T02:33:48;18.40;97.20
780;DHT22;373;49.342;8.146;2022-07-10T02:36:15;18.30;96.90
780;DHT22;373;49.342;8.146;2022-07-10T02:38:42;18.30;97.10
780;DHT22;373;49.342;8.146;2022-07-10T02:41:09;18.30;97.00
780;DHT22;373;49.342;8.146;2022-07-10T02:43:36;18.30;96.60
780;DHT22;373;49.342;8.146;2022-07-10T02:46:05;18.20;96.90
780;DHT22;373;49.342;8.146;2022-07-10T02:48:32;18.00;97.00
780;DHT22;373;49.342;8.146;2022-07-10T02:50:59;18.00;96.90
780;DHT22;373;49.342;8.146;2022-07-10T02:53:26;17.90;97.10
780;DHT22;373;49.342;8.146;2022-07-10T02:55:53;17.90;97.80
780;DHT22;373;49.342;8.146;2022-07-10T02:58:20;17.80;97.40
780;DHT22;373;49.342;8.146;2022-07-10T03:00:47;17.90;97.40
780;DHT22;373;49.342;8.146;2022-07-10T03:03:15;17.80;97.50
780;DHT22;373;49.342;8.146;2022-07-10T03:05:43;17.90;97.90
780;DHT22;373;49.342;8.146;2022-07-10T03:08:11;18.00;97.30
780;DHT22;373;49.342;8.146;2022-07-10T03:10:38;18.10;96.90
780;DHT22;373;49.342;8.146;2022-07-10T03:13:06;18.00;96.90
780;DHT22;373;49.342;8.146;2022-07-10T03:15:34;18.00;96.90
780;DHT22;373;49.342;8.146;2022-07-10T03:18:01;18.00;97.20
780;DHT22;373;49.342;8.146;2022-07-10T03:20:30;17.90;97.30
780;DHT22;373;49.342;8.146;2022-07-10T03:22:57;18.00;97.00
780;DHT22;373;49.342;8.146;2022-07-10T03:25:24;18.00;96.90
780;DHT22;373;49.342;8.146;2022-07-10T03:27:51;17.90;97.00
780;DHT22;373;49.342;8.146;2022-07-10T03:30:18;17.70;97.60
780;DHT22;373;49.342;8.146;2022-07-10T03:32:45;17.60;97.80
780;DHT22;373;49.342;8.146;2022-07-10T03:35:12;17.50;98.30
780;DHT22;373;49.342;8.146;2022-07-10T03:37:41;17.60;97.90
780;DHT22;373;49.342;8.146;2022-07-10T03:40:09;17.40;98.00
780;DHT22;373;49.342;8.146;2022-07-10T03:42:36;17.50;98.50
780;DHT22;373;49.342;8.146;2022-07-10T03:45:04;17.50;98.80
780;DHT22;373;49.342;8.146;2022-07-10T03:47:31;17.50;98.40
780;DHT22;373;49.342;8.146;2022-07-10T03:49:58;17.50;98.30
780;DHT22;373;49.342;8.146;2022-07-10T03:52:25;17.60;98.20
780;DHT22;373;49.342;8.146;2022-07-10T03:54:55;17.60;98.20
780;DHT22;373;49.342;8.146;2022-07-10T03:57:22;17.70;98.20
780;DHT22;373;49.342;8.146;2022-07-10T04:00:08;17.40;98.50
780;DHT22;373;49.342;8.146;2022-07-10T04:02:38;17.30;98.70
780;DHT22;373;49.342;8.146;2022-07-10T04:05:05;17.20;99.20
780;DHT22;373;49.342;8.146;2022-07-10T04:07:33;17.20;98.90
780;DHT22;373;49.342;8.146;2022-07-10T04:10:02;17.30;99.50
780;DHT22;373;49.342;8.146;2022-07-10T04:12:30;17.30;99.10
780;DHT22;373;49.342;8.146;2022-07-10T04:14:57;17.10;99.30
780;DHT22;373;49.342;8.146;2022-07-10T04:17:24;17.10;99.80
780;DHT22;373;49.342;8.146;2022-07-10T04:19:51;17.10;99.80
780;DHT22;373;49.342;8.146;2022-07-10T04:22:18;17.00;99.90
780;DHT22;373;49.342;8.146;2022-07-10T04:24:45;17.10;99.90
780;DHT22;373;49.342;8.146;2022-07-10T04:27:13;17.20;99.30
780;DHT22;373;49.342;8.146;2022-07-10T04:29:42;17.40;98.70
780;DHT22;373;49.342;8.146;2022-07-10T04:32:09;17.50;98.80
780;DHT22;373;49.342;8.146;2022-07-10T04:34:37;17.70;97.90
780;DHT22;373;49.342;8.146;2022-07-10T04:37:04;17.50;97.70
780;DHT22;373;49.342;8.146;2022-07-10T04:39:33;17.50;97.90
780;DHT22;373;49.342;8.146;2022-07-10T04:42:00;17.50;97.60
780;DHT22;373;49.342;8.146;2022-07-10T04:44:30;17.20;98.30
780;DHT22;373;49.342;8.146;2022-07-10T04:46:57;17.60;97.90
780;DHT22;373;49.342;8.146;2022-07-10T04:49:25;17.60;97.90
780;DHT22;373;49.342;8.146;2022-07-10T04:51:52;17.80;97.10
780;DHT22;373;49.342;8.146;2022-07-10T04:54:20;17.70;96.90
780;DHT22;373;49.342;8.146;2022-07-10T04:56:47;17.50;97.30
780;DHT22;373;49.342;8.146;2022-07-10T04:59:14;17.50;97.20
780;DHT22;373;49.342;8.146;2022-07-10T05:01:42;17.60;96.90
780;DHT22;373;49.342;8.146;2022-07-10T05:04:09;17.50;96.90
780;DHT22;373;49.342;8.146;2022-07-10T05:06:36;18.00;96.70
780;DHT22;373;49.342;8.146;2022-07-10T05:09:04;18.30;95.60
780;DHT22;373;49.342;8.146;2022-07-10T05:11:31;18.50;94.70
780;DHT22;373;49.342;8.146;2022-07-10T05:13:58;18.50;95.10
780;DHT22;373;49.342;8.146;2022-07-10T05:16:25;18.50;94.50
780;DHT22;373;49.342;8.146;2022-07-10T05:18:54;18.60;94.20
780;DHT22;373;49.342;8.146;2022-07-10T05:21:21;18.90;94.10
780;DHT22;373;49.342;8.146;2022-07-10T05:23:48;18.80;93.80
780;DHT22;373;49.342;8.146;2022-07-10T05:26:15;19.00;93.30
780;DHT22;373;49.342;8.146;2022-07-10T05:28:42;19.10;93.40
780;DHT22;373;49.342;8.146;2022-07-10T05:31:09;19.10;92.90
780;DHT22;373;49.342;8.146;2022-07-10T05:33:36;19.10;92.30
780;DHT22;373;49.342;8.146;2022-07-10T05:36:08;19.10;92.50
780;DHT22;373;49.342;8.146;2022-07-10T05:38:35;19.60;91.90
780;DHT22;373;49.342;8.146;2022-07-10T05:41:02;19.40;91.50
780;DHT22;373;49.342;8.146;2022-07-10T05:43:29;19.00;91.80
780;DHT22;373;49.342;8.146;2022-07-10T05:45:56;19.10;92.20
780;DHT22;373;49.342;8.146;2022-07-10T05:48:23;18.70;92.70
780;DHT22;373;49.342;8.146;2022-07-10T05:50:50;18.30;92.70
780;DHT22;373;49.342;8.146;2022-07-10T05:53:19;18.40;93.00
780;DHT22;373;49.342;8.146;2022-07-10T05:55:47;18.70;92.60
780;DHT22;373;49.342;8.146;2022-07-10T05:58:14;18.90;91.70
780;DHT22;373;49.342;8.146;2022-07-10T06:00:41;18.70;91.70
780;DHT22;373;49.342;8.146;2022-07-10T06:03:09;18.30;90.80
780;DHT22;373;49.342;8.146;2022-07-10T06:05:36;18.00;91.60
780;DHT22;373;49.342;8.146;2022-07-10T06:08:04;18.30;90.30
780;DHT22;373;49.342;8.146;2022-07-10T06:10:32;18.50;89.80
780;DHT22;373;49.342;8.146;2022-07-10T06:12:59;18.90;89.50
780;DHT22;373;49.342;8.146;2022-07-10T06:15:26;18.80;87.80
780;DHT22;373;49.342;8.146;2022-07-10T06:17:56;18.90;87.80
780;DHT22;373;49.342;8.146;2022-07-10T06:20:24;19.20;87.50
780;DHT22;373;49.342;8.146;2022-07-10T06:22:52;19.60;87.80
780;DHT22;373;49.342;8.146;2022-07-10T06:25:21;19.90;84.50
780;DHT22;373;49.342;8.146;2022-07-10T06:27:50;20.20;83.10
780;DHT22;373;49.342;8.146;2022-07-10T06:30:17;20.40;81.90
780;DHT22;373;49.342;8.146;2022-07-10T06:32:44;20.40;82.10
780;DHT22;373;49.342;8.146;2022-07-10T06:35:11;20.50;81.20
780;DHT22;373;49.342;8.146;2022-07-10T06:37:38;20.10;80.70
780;DHT22;373;49.342;8.146;2022-07-10T06:40:06;20.30;80.60
780;DHT22;373;49.342;8.146;2022-07-10T06:42:34;20.30;79.10
780;DHT22;373;49.342;8.146;2022-07-10T06:45:03;20.40;79.80
780;DHT22;373;49.342;8.146;2022-07-10T06:47:30;20.50;79.10
780;DHT22;373;49.342;8.146;2022-07-10T06:50:15;20.70;78.10
780;DHT22;373;49.342;8.146;2022-07-10T06:52:42;20.30;77.70
780;DHT22;373;49.342;8.146;2022-07-10T06:55:10;20.20;79.60
780;DHT22;373;49.342;8.146;2022-07-10T06:57:38;20.50;79.90
780;DHT22;373;49.342;8.146;2022-07-10T07:00:08;20.50;80.00
780;DHT22;373;49.342;8.146;2022-07-10T07:02:36;20.70;79.90
780;DHT22;373;49.342;8.146;2022-07-10T07:05:04;20.90;77.20
780;DHT22;373;49.342;8.146;2022-07-10T07:07:31;20.80;75.40
780;DHT22;373;49.342;8.146;2022-07-10T07:09:58;21.00;77.90
780;DHT22;373;49.342;8.146;2022-07-10T07:12:25;21.40;76.20
780;DHT22;373;49.342;8.146;2022-07-10T07:14:52;21.50;76.50
780;DHT22;373;49.342;8.146;2022-07-10T07:17:21;21.50;75.30
780;DHT22;373;49.342;8.146;2022-07-10T07:19:50;21.30;75.70
780;DHT22;373;49.342;8.146;2022-07-10T07:22:36;21.10;74.60
780;DHT22;373;49.342;8.146;2022-07-10T07:25:21;21.40;75.80
780;DHT22;373;49.342;8.146;2022-07-10T07:27:48;21.90;74.90
780;DHT22;373;49.342;8.146;2022-07-10T07:30:16;22.10;74.50
780;DHT22;373;49.342;8.146;2022-07-10T07:32:46;22.10;73.80
780;DHT22;373;49.342;8.146;2022-07-10T07:35:15;21.20;74.30
780;DHT22;373;49.342;8.146;2022-07-10T07:37:45;20.70;75.70
780;DHT22;373;49.342;8.146;2022-07-10T07:40:13;20.10;76.70
780;DHT22;373;49.342;8.146;2022-07-10T07:42:41;19.60;77.60
780;DHT22;373;49.342;8.146;2022-07-10T07:45:09;19.30;78.60
780;DHT22;373;49.342;8.146;2022-07-10T07:47:44;19.10;78.80
780;DHT22;373;49.342;8.146;2022-07-10T07:50:12;18.90;78.80
780;DHT22;373;49.342;8.146;2022-07-10T07:52:39;18.80;79.10
780;DHT22;373;49.342;8.146;2022-07-10T07:55:07;18.90;79.10
780;DHT22;373;49.342;8.146;2022-07-10T07:57:34;19.40;78.00
780;DHT22;373;49.342;8.146;2022-07-10T08:00:02;20.00;77.10
780;DHT22;373;49.342;8.146;2022-07-10T08:02:38;19.90;74.40
780;DHT22;373;49.342;8.146;2022-07-10T08:05:07;19.80;73.70
780;DHT22;373;49.342;8.146;2022-07-10T08:07:35;20.30;74.30
780;DHT22;373;49.342;8.146;2022-07-10T08:10:04;20.50;72.50
780;DHT22;373;49.342;8.146;2022-07-10T08:12:32;20.50;72.20
780;DHT22;373;49.342;8.146;2022-07-10T08:14:59;20.00;73.40
780;DHT22;373;49.342;8.146;2022-07-10T08:17:27;20.00;75.00
780;DHT22;373;49.342;8.146;2022-07-10T08:19:54;19.80;74.30
780;DHT22;373;49.342;8.146;2022-07-10T08:22:22;19.70;76.20
780;DHT22;373;49.342;8.146;2022-07-10T08:24:49;19.90;75.10
780;DHT22;373;49.342;8.146;2022-07-10T08:27:17;20.30;73.70
780;DHT22;373;49.342;8.146;2022-07-10T08:29:44;21.00;74.80
780;DHT22;373;49.342;8.146;2022-07-10T08:32:11;21.20;69.90
780;DHT22;373;49.342;8.146;2022-07-10T08:34:38;21.70;71.10
780;DHT22;373;49.342;8.146;2022-07-10T08:37:05;21.90;70.10
780;DHT22;373;49.342;8.146;2022-07-10T08:39:33;21.60;70.80
780;DHT22;373;49.342;8.146;2022-07-10T08:42:01;21.60;71.70
780;DHT22;373;49.342;8.146;2022-07-10T08:44:28;21.50;70.80
780;DHT22;373;49.342;8.146;2022-07-10T08:46:56;21.30;68.70
780;DHT22;373;49.342;8.146;2022-07-10T08:49:27;21.20;71.00
780;DHT22;373;49.342;8.146;2022-07-10T08:51:58;21.80;69.80
780;DHT22;373;49.342;8.146;2022-07-10T08:54:27;21.80;67.10
780;DHT22;373;49.342;8.146;2022-07-10T08:56:58;21.80;67.80
780;DHT22;373;49.342;8.146;2022-07-10T08:59:26;21.90;68.20
780;DHT22;373;49.342;8.146;2022-07-10T09:01:53;21.80;65.90
780;DHT22;373;49.342;8.146;2022-07-10T09:04:22;21.70;65.10
780;DHT22;373;49.342;8.146;2022-07-10T09:06:51;21.80;66.80
780;DHT22;373;49.342;8.146;2022-07-10T09:09:19;22.40;65.90
780;DHT22;373;49.342;8.146;2022-07-10T09:11:46;22.50;68.30
780;DHT22;373;49.342;8.146;2022-07-10T09:14:16;22.30;65.70
780;DHT22;373;49.342;8.146;2022-07-10T09:16:44;22.60;66.00
780;DHT22;373;49.342;8.146;2022-07-10T09:19:18;23.10;65.50
780;DHT22;373;49.342;8.146;2022-07-10T09:21:48;23.30;63.90
780;DHT22;373;49.342;8.146;2022-07-10T09:24:16;23.60;62.20
780;DHT22;373;49.342;8.146;2022-07-10T09:26:58;23.70;60.30
780;DHT22;373;49.342;8.146;2022-07-10T09:29:28;24.10;61.40
780;DHT22;373;49.342;8.146;2022-07-10T09:31:56;24.30;61.60
780;DHT22;373;49.342;8.146;2022-07-10T09:34:37;24.00;60.90
780;DHT22;373;49.342;8.146;2022-07-10T09:37:18;24.10;61.10
780;DHT22;373;49.342;8.146;2022-07-10T09:39:53;24.20;60.70
780;DHT22;373;49.342;8.146;2022-07-10T09:42:25;23.30;60.00
780;DHT22;373;49.342;8.146;2022-07-10T09:45:13;22.50;61.20
780;DHT22;373;49.342;8.146;2022-07-10T09:47:43;22.70;61.80
780;DHT22;373;49.342;8.146;2022-07-10T09:50:20;22.60;61.30
780;DHT22;373;49.342;8.146;2022-07-10T09:52:50;23.00;62.80
780;DHT22;373;49.342;8.146;2022-07-10T09:55:19;23.40;60.90
780;DHT22;373;49.342;8.146;2022-07-10T09:57:51;23.30;61.40
780;DHT22;373;49.342;8.146;2022-07-10T10:00:23;23.10;61.80
780;DHT22;373;49.342;8.146;2022-07-10T10:02:55;23.30;61.50
780;DHT22;373;49.342;8.146;2022-07-10T10:05:30;23.40;61.30
780;DHT22;373;49.342;8.146;2022-07-10T10:08:01;23.20;59.20
780;DHT22;373;49.342;8.146;2022-07-10T10:10:32;22.80;60.20
780;DHT22;373;49.342;8.146;2022-07-10T10:13:03;22.50;61.00
780;DHT22;373;49.342;8.146;2022-07-10T10:15:37;22.60;62.00
780;DHT22;373;49.342;8.146;2022-07-10T10:18:05;22.80;61.90
780;DHT22;373;49.342;8.146;2022-07-10T10:20:33;23.20;61.20
780;DHT22;373;49.342;8.146;2022-07-10T10:23:04;23.40;60.20
780;DHT22;373;49.342;8.146;2022-07-10T10:25:33;24.10;58.90
780;DHT22;373;49.342;8.146;2022-07-10T10:28:01;23.80;59.80
780;DHT22;373;49.342;8.146;2022-07-10T10:30:30;23.70;60.10
780;DHT22;373;49.342;8.146;2022-07-10T10:32:58;24.10;59.00
780;DHT22;373;49.342;8.146;2022-07-10T10:35:42;24.40;61.30
780;DHT22;373;49.342;8.146;2022-07-10T10:38:10;23.80;58.20
780;DHT22;373;49.342;8.146;2022-07-10T10:40:37;23.30;57.40
780;DHT22;373;49.342;8.146;2022-07-10T10:43:18;23.50;59.70
780;DHT22;373;49.342;8.146;2022-07-10T10:45:45;23.70;57.90
780;DHT22;373;49.342;8.146;2022-07-10T10:48:15;23.90;57.80
780;DHT22;373;49.342;8.146;2022-07-10T10:50:46;23.50;58.20
780;DHT22;373;49.342;8.146;2022-07-10T10:53:15;23.70;58.50
780;DHT22;373;49.342;8.146;2022-07-10T10:56:22;23.80;59.10
780;DHT22;373;49.342;8.146;2022-07-10T10:58:50;24.20;58.70
780;DHT22;373;49.342;8.146;2022-07-10T11:01:24;23.90;57.80
780;DHT22;373;49.342;8.146;2022-07-10T11:04:15;23.70;57.60
780;DHT22;373;49.342;8.146;2022-07-10T11:06:44;23.70;59.50
780;DHT22;373;49.342;8.146;2022-07-10T11:09:27;23.80;56.90
780;DHT22;373;49.342;8.146;2022-07-10T11:12:02;24.10;55.90
780;DHT22;373;49.342;8.146;2022-07-10T11:14:31;24.60;57.40
780;DHT22;373;49.342;8.146;2022-07-10T11:16:59;25.00;57.70
780;DHT22;373;49.342;8.146;2022-07-10T11:19:29;24.50;54.90
780;DHT22;373;49.342;8.146;2022-07-10T11:25:07;24.30;56.60
780;DHT22;373;49.342;8.146;2022-07-10T11:27:57;24.10;56.80
780;DHT22;373;49.342;8.146;2022-07-10T11:30:27;24.30;57.00
780;DHT22;373;49.342;8.146;2022-07-10T11:32:54;24.80;57.70
780;DHT22;373;49.342;8.146;2022-07-10T11:35:23;24.70;57.30
780;DHT22;373;49.342;8.146;2022-07-10T11:37:51;24.80;58.20
780;DHT22;373;49.342;8.146;2022-07-10T11:40:19;25.10;57.30
780;DHT22;373;49.342;8.146;2022-07-10T11:42:50;25.10;55.70
780;DHT22;373;49.342;8.146;2022-07-10T11:45:26;25.10;56.00
780;DHT22;373;49.342;8.146;2022-07-10T11:47:53;25.00;56.70
780;DHT22;373;49.342;8.146;2022-07-10T11:50:20;24.60;55.10
780;DHT22;373;49.342;8.146;2022-07-10T11:52:50;23.90;56.20
780;DHT22;373;49.342;8.146;2022-07-10T11:55:19;23.20;58.20
780;DHT22;373;49.342;8.146;2022-07-10T11:57:46;23.50;59.70
780;DHT22;373;49.342;8.146;2022-07-10T12:00:23;23.70;57.90
780;DHT22;373;49.342;8.146;2022-07-10T12:02:50;23.90;59.20
780;DHT22;373;49.342;8.146;2022-07-10T12:05:34;24.70;57.90
780;DHT22;373;49.342;8.146;2022-07-10T12:08:03;24.50;56.80
780;DHT22;373;49.342;8.146;2022-07-10T12:10:33;24.60;57.80
780;DHT22;373;49.342;8.146;2022-07-10T12:13:04;24.00;57.00
780;DHT22;373;49.342;8.146;2022-07-10T12:15:33;24.30;57.20
780;DHT22;373;49.342;8.146;2022-07-10T12:18:00;24.40;58.60
780;DHT22;373;49.342;8.146;2022-07-10T12:20:27;24.40;58.30
780;DHT22;373;49.342;8.146;2022-07-10T12:22:55;24.60;56.70
780;DHT22;373;49.342;8.146;2022-07-10T12:25:24;24.60;58.90
780;DHT22;373;49.342;8.146;2022-07-10T12:27:55;24.70;58.10
780;DHT22;373;49.342;8.146;2022-07-10T12:30:24;24.50;57.20
780;DHT22;373;49.342;8.146;2022-07-10T12:33:09;24.30;57.50
780;DHT22;373;49.342;8.146;2022-07-10T12:35:50;24.00;58.50
780;DHT22;373;49.342;8.146;2022-07-10T12:38:18;23.90;59.30
780;DHT22;373;49.342;8.146;2022-07-10T12:40:47;23.90;58.40
780;DHT22;373;49.342;8.146;2022-07-10T12:43:24;24.40;60.00
780;DHT22;373;49.342;8.146;2022-07-10T12:46:10;25.00;58.70
780;DHT22;373;49.342;8.146;2022-07-10T12:48:37;25.50;57.70
780;DHT22;373;49.342;8.146;2022-07-10T12:51:23;24.90;57.00
780;DHT22;373;49.342;8.146;2022-07-10T12:53:50;24.10;57.80
780;DHT22;373;49.342;8.146;2022-07-10T12:56:29;24.20;59.80
780;DHT22;373;49.342;8.146;2022-07-10T12:58:56;24.50;59.10
780;DHT22;373;49.342;8.146;2022-07-10T13:01:23;24.30;59.30
780;DHT22;373;49.342;8.146;2022-07-10T13:03:58;24.10;57.80
780;DHT22;373;49.342;8.146;2022-07-10T13:06:26;24.10;58.80
780;DHT22;373;49.342;8.146;2022-07-10T13:08:54;24.80;59.80
780;DHT22;373;49.342;8.146;2022-07-10T13:11:21;24.90;58.60
780;DHT22;373;49.342;8.146;2022-07-10T13:13:49;24.30;59.30
780;DHT22;373;49.342;8.146;2022-07-10T13:16:17;24.40;60.00
780;DHT22;373;49.342;8.146;2022-07-10T13:18:44;24.30;59.50
780;DHT22;373;49.342;8.146;2022-07-10T13:21:11;24.30;59.00
780;DHT22;373;49.342;8.146;2022-07-10T13:23:39;24.20;59.60
780;DHT22;373;49.342;8.146;2022-07-10T13:26:08;24.20;60.90
780;DHT22;373;49.342;8.146;2022-07-10T13:28:35;24.10;59.20
780;DHT22;373;49.342;8.146;2022-07-10T13:31:04;23.90;59.50
780;DHT22;373;49.342;8.146;2022-07-10T13:33:32;23.90;61.50
780;DHT22;373;49.342;8.146;2022-07-10T13:36:00;24.10;61.00
780;DHT22;373;49.342;8.146;2022-07-10T13:38:28;24.00;59.60
780;DHT22;373;49.342;8.146;2022-07-10T13:40:55;24.10;60.00
780;DHT22;373;49.342;8.146;2022-07-10T13:43:22;24.10;59.80
780;DHT22;373;49.342;8.146;2022-07-10T13:45:53;24.00;60.00
780;DHT22;373;49.342;8.146;2022-07-10T13:48:21;24.10;61.90
780;DHT22;373;49.342;8.146;2022-07-10T13:50:48;24.30;61.60
780;DHT22;373;49.342;8.146;2022-07-10T13:53:15;24.00;61.10
780;DHT22;373;49.342;8.146;2022-07-10T13:55:43;24.00;60.90
780;DHT22;373;49.342;8.146;2022-07-10T13:58:11;23.80;61.20
780;DHT22;373;49.342;8.146;2022-07-10T14:00:38;23.70;61.80
780;DHT22;373;49.342;8.146;2022-07-10T14:03:07;23.70;60.10
780;DHT22;373;49.342;8.146;2022-07-10T14:05:37;23.60;61.80
780;DHT22;373;49.342;8.146;2022-07-10T14:08:04;23.60;61.30
780;DHT22;373;49.342;8.146;2022-07-10T14:10:31;23.40;62.30
780;DHT22;373;49.342;8.146;2022-07-10T14:12:59;23.10;61.30
780;DHT22;373;49.342;8.146;2022-07-10T14:15:26;23.10;62.20
780;DHT22;373;49.342;8.146;2022-07-10T14:17:53;23.10;62.30
780;DHT22;373;49.342;8.146;2022-07-10T14:20:20;23.20;62.90
780;DHT22;373;49.342;8.146;2022-07-10T14:22:49;23.40;63.20
780;DHT22;373;49.342;8.146;2022-07-10T14:25:17;23.10;62.60
780;DHT22;373;49.342;8.146;2022-07-10T14:27:46;23.10;63.20
780;DHT22;373;49.342;8.146;2022-07-10T14:30:13;23.10;62.80
780;DHT22;373;49.342;8.146;2022-07-10T14:32:40;22.80;63.60
780;DHT22;373;49.342;8.146;2022-07-10T14:35:08;22.60;63.30
780;DHT22;373;49.342;8.146;2022-07-10T14:37:35;22.60;64.10
780;DHT22;373;49.342;8.146;2022-07-10T14:40:05;22.60;63.60
780;DHT22;373;49.342;8.146;2022-07-10T14:42:32;22.70;64.10
780;DHT22;373;49.342;8.146;2022-07-10T14:44:59;22.80;63.90
780;DHT22;373;49.342;8.146;2022-07-10T14:47:41;22.50;64.60
780;DHT22;373;49.342;8.146;2022-07-10T14:50:09;22.50;64.30
780;DHT22;373;49.342;8.146;2022-07-10T14:52:36;22.50;64.80
780;DHT22;373;49.342;8.146;2022-07-10T14:55:06;22.50;64.90
780;DHT22;373;49.342;8.146;2022-07-10T14:57:33;22.50;65.10
780;DHT22;373;49.342;8.146;2022-07-10T15:00:00;22.60;65.70
780;DHT22;373;49.342;8.146;2022-07-10T15:02:28;22.50;65.20
780;DHT22;373;49.342;8.146;2022-07-10T15:04:55;22.40;66.10
780;DHT22;373;49.342;8.146;2022-07-10T15:07:22;22.60;66.30
780;DHT22;373;49.342;8.146;2022-07-10T15:09:49;22.50;66.30
780;DHT22;373;49.342;8.146;2022-07-10T15:12:18;22.70;66.00
780;DHT22;373;49.342;8.146;2022-07-10T15:14:46;22.60;66.00
780;DHT22;373;49.342;8.146;2022-07-10T15:17:13;22.60;66.40
780;DHT22;373;49.342;8.146;2022-07-10T15:19:40;22.50;66.90
780;DHT22;373;49.342;8.146;2022-07-10T15:22:07;22.40;66.60
780;DHT22;373;49.342;8.146;2022-07-10T15:24:35;22.50;67.30
780;DHT22;373;49.342;8.146;2022-07-10T15:27:03;22.50;66.60
780;DHT22;373;49.342;8.146;2022-07-10T15:29:31;22.60;66.80
780;DHT22;373;49.342;8.146;2022-07-10T15:31:58;22.60;66.70
780;DHT22;373;49.342;8.146;2022-07-10T15:34:25;22.50;66.80
780;DHT22;373;49.342;8.146;2022-07-10T15:36:53;22.60;66.80
780;DHT22;373;49.342;8.146;2022-07-10T15:39:20;23.10;66.90
780;DHT22;373;49.342;8.146;2022-07-10T15:41:47;23.10;66.90
780;DHT22;373;49.342;8.146;2022-07-10T15:44:14;23.10;65.20
780;DHT22;373;49.342;8.146;2022-07-10T15:46:43;23.00;65.50
780;DHT22;373;49.342;8.146;2022-07-10T15:49:10;22.70;66.30
780;DHT22;373;49.342;8.146;2022-07-10T15:51:37;22.70;66.40
780;DHT22;373;49.342;8.146;2022-07-10T15:54:04;22.70;66.10
780;DHT22;373;49.342;8.146;2022-07-10T15:56:31;23.20;66.80
780;DHT22;373;49.342;8.146;2022-07-10T15:58:59;23.50;65.50
780;DHT22;373;49.342;8.146;2022-07-10T16:01:26;23.40;65.30
780;DHT22;373;49.342;8.146;2022-07-10T16:03:55;23.40;65.60
780;DHT22;373;49.342;8.146;2022-07-10T16:06:22;23.20;66.10
780;DHT22;373;49.342;8.146;2022-07-10T16:08:49;22.90;66.50
780;DHT22;373;49.342;8.146;2022-07-10T16:11:16;23.00;67.60
780;DHT22;373;49.342;8.146;2022-07-10T16:13:44;22.80;67.70
780;DHT22;373;49.342;8.146;2022-07-10T16:16:11;22.60;67.90
780;DHT22;373;49.342;8.146;2022-07-10T16:18:38;22.70;67.70
780;DHT22;373;49.342;8.146;2022-07-10T16:21:07;22.80;68.10
780;DHT22;373;49.342;8.146;2022-07-10T16:23:34;23.00;68.20
780;DHT22;373;49.342;8.146;2022-07-10T16:26:01;23.00;68.20
780;DHT22;373;49.342;8.146;2022-07-10T16:28:31;23.00;67.30
780;DHT22;373;49.342;8.146;2022-07-10T16:30:59;22.80;68.30
780;DHT22;373;49.342;8.146;2022-07-10T16:33:26;22.60;67.80
780;DHT22;373;49.342;8.146;2022-07-10T16:35:54;22.60;68.50
780;DHT22;373;49.342;8.146;2022-07-10T16:38:22;22.60;68.50
780;DHT22;373;49.342;8.146;2022-07-10T16:40:50;22.70;68.80
780;DHT22;373;49.342;8.146;2022-07-10T16:43:17;22.80;68.90
780;DHT22;373;49.342;8.146;2022-07-10T16:45:45;23.00;68.80
780;DHT22;373;49.342;8.146;2022-07-10T16:48:12;23.00;68.80